createdAt,value
2023-04-09T00:05:49.552Z,75799.09
2023-04-09T00:15:53.116Z,75786.94
2023-04-09T00:25:55.470Z,75776.81
2023-04-09T00:36:00.058Z,75770.75
2023-04-09T00:46:04.917Z,75758.63
2023-04-09T00:56:11.149Z,75752.53
2023-04-09T01:06:32.230Z,75762.66
2023-04-09T01:16:36.272Z,75770.75
2023-04-09T01:26:45.241Z,75786.94
2023-04-09T01:36:52.631Z,75807.19
2023-04-09T01:47:00.240Z,75799.09
2023-04-09T01:57:08.339Z,75819.31
2023-04-09T02:07:27.831Z,75817.31
2023-04-09T02:17:32.948Z,75807.19
2023-04-09T02:27:37.400Z,75811.22
2023-04-09T02:37:39.940Z,75819.31
2023-04-09T02:47:45.151Z,75811.22
2023-04-09T02:57:47.604Z,75821.34
2023-04-09T03:07:52.230Z,75817.31
2023-04-09T03:17:54.412Z,75819.31
2023-04-09T03:27:56.570Z,75784.91
2023-04-09T03:38:15.617Z,75803.13
2023-04-09T03:48:23.186Z,75851.72
2023-04-09T03:58:33.970Z,75863.84
2023-04-09T04:08:39.899Z,75873.97
2023-04-09T04:18:42.439Z,75867.91
2023-04-09T04:28:44.969Z,75863.84
2023-04-09T04:38:58.626Z,75841.59
2023-04-09T04:49:26.883Z,75847.66
2023-04-09T04:59:30.194Z,75847.66
2023-04-09T05:09:43.167Z,75823.38
2023-04-09T05:19:51.552Z,75815.28
2023-04-09T05:30:00.670Z,75791.00
2023-04-09T05:40:03.605Z,75754.56
2023-04-09T05:50:06.761Z,75718.13
2023-04-09T06:00:15.451Z,75661.47
2023-04-09T06:10:22.629Z,75631.13
2023-04-09T06:20:25.108Z,75600.75
2023-04-09T06:30:32.358Z,75586.59
2023-04-09T06:40:34.489Z,75511.72
2023-04-09T06:50:39.361Z,75570.41
2023-04-09T07:00:45.243Z,75594.69
2023-04-09T07:10:47.977Z,75568.38
2023-04-09T07:20:55.530Z,75576.47
2023-04-09T07:30:57.736Z,75527.91
2023-04-09T07:40:59.865Z,75487.44
2023-04-09T07:51:04.805Z,75440.88
2023-04-09T08:01:06.979Z,75398.38
2023-04-09T08:11:09.216Z,75390.28
2023-04-09T08:21:13.551Z,75353.88
2023-04-09T08:31:18.124Z,75293.16
2023-04-09T08:41:29.683Z,75272.94
2023-04-09T08:51:32.261Z,75319.47
2023-04-09T09:01:34.600Z,75297.22
2023-04-09T09:11:44.609Z,75366.00
2023-04-09T09:21:56.638Z,75256.75
2023-04-09T09:31:58.825Z,75244.59
2023-04-09T09:42:08.693Z,75208.16
2023-04-09T09:52:15.654Z,75240.56
2023-04-09T10:02:27.150Z,75196.03
2023-04-09T10:12:36.741Z,75240.56
2023-04-09T10:22:39.501Z,75171.75
2023-04-09T10:32:44.833Z,75175.78
2023-04-09T10:42:52.454Z,75125.22
2023-04-09T10:53:05.118Z,75127.22
2023-04-09T11:03:26.072Z,75163.66
2023-04-09T11:13:32.227Z,75145.44
2023-04-09T11:23:36.543Z,75086.75
2023-04-09T11:33:38.843Z,75040.22
2023-04-09T11:43:50.489Z,75017.97
2023-04-09T11:53:52.685Z,75050.34
2023-04-09T12:03:57.926Z,75005.81
2023-04-09T12:14:05.919Z,75005.81
2023-04-09T12:24:08.264Z,74977.50
2023-04-09T12:34:15.373Z,74963.34
2023-04-09T12:44:17.462Z,74949.16
2023-04-09T12:54:20.957Z,74989.63
2023-04-09T13:04:23.471Z,75082.72
2023-04-09T13:14:25.669Z,75317.44
2023-04-09T13:24:28.028Z,75493.50
2023-04-09T13:34:33.190Z,75507.66
2023-04-09T13:44:37.840Z,75499.56
2023-04-09T13:54:40.137Z,75483.38
2023-04-09T14:04:44.804Z,75487.44
2023-04-09T14:14:50.207Z,75459.09
2023-04-09T14:24:52.372Z,75434.81
2023-04-09T14:34:54.551Z,75398.38
2023-04-09T14:44:58.867Z,75382.19
2023-04-09T14:55:01.208Z,75337.69
2023-04-09T15:05:04.062Z,75353.88
2023-04-09T15:15:09.705Z,75347.78
2023-04-09T15:25:14.175Z,75331.59
2023-04-09T15:35:25.252Z,75313.41
2023-04-09T15:45:27.346Z,75301.25
2023-04-09T15:55:29.635Z,75250.66
2023-04-09T16:05:31.781Z,75198.06
2023-04-09T16:15:36.309Z,75177.81
2023-04-09T16:25:40.669Z,75185.91
2023-04-09T16:35:43.106Z,75202.09
2023-04-09T16:45:48.767Z,75208.16
2023-04-09T16:55:50.992Z,75224.34
2023-04-09T17:05:57.483Z,75268.88
2023-04-09T17:16:03.025Z,75297.22
2023-04-09T17:26:07.639Z,75315.41
2023-04-09T17:36:12.607Z,75325.53
2023-04-09T17:46:14.896Z,75333.63
2023-04-09T17:56:17.534Z,75359.94
2023-04-09T18:06:19.639Z,75366.00
2023-04-09T18:16:23.490Z,75418.63
2023-04-09T18:26:31.750Z,75515.75
2023-04-09T18:36:35.782Z,75582.53
2023-04-09T18:46:38.085Z,75612.91
2023-04-09T18:56:41.222Z,75637.19
2023-04-09T19:06:46.469Z,75635.16
2023-04-09T19:16:49.615Z,75629.09
2023-04-09T19:26:54.500Z,75621.00
2023-04-09T19:36:59.238Z,75616.94
2023-04-09T19:47:08.830Z,75604.81
2023-04-09T19:57:11.170Z,75616.94
2023-04-09T20:07:16.869Z,75608.84
2023-04-09T20:17:21.629Z,75612.91
2023-04-09T20:27:26.534Z,75610.88
2023-04-09T20:37:32.542Z,75623.03
2023-04-09T20:47:35.014Z,75618.97
2023-04-09T20:57:39.666Z,75625.03
2023-04-09T21:07:41.959Z,75633.13
2023-04-09T21:17:48.733Z,75651.34
2023-04-09T21:27:50.939Z,75685.75
2023-04-09T21:37:53.330Z,75708.03
2023-04-09T21:48:00.634Z,75720.16
2023-04-09T21:58:09.544Z,75714.09
2023-04-09T22:08:13.397Z,75718.13
2023-04-09T22:18:17.847Z,75742.41
2023-04-09T22:28:22.774Z,75742.41
2023-04-09T22:38:27.437Z,75746.47
2023-04-09T22:48:35.879Z,75758.63
2023-04-09T22:58:46.220Z,75776.81
2023-04-09T23:08:51.130Z,75778.84
2023-04-09T23:18:53.515Z,75786.94
2023-04-09T23:28:56.093Z,75793.03
2023-04-09T23:38:58.256Z,75795.03
2023-04-09T23:49:02.613Z,75782.91
2023-04-09T23:59:09.383Z,75788.97
